sensor_id;sensor_type;location;lat;lon;timestamp;temperature;humidity
40660;DHT22;26753;45.544;9.232;2024-02-04T00:02:03;12.70;99.90
40660;DHT22;26753;45.544;9.232;2024-02-04T00:04:29;12.80;99.90
40660;DHT22;26753;45.544;9.232;2024-02-04T00:06:57;12.50;99.90
40660;DHT22;26753;45.544;9.232;2024-02-04T00:09:23;11.60;99.90
40660;DHT22;26753;45.544;9.232;2024-02-04T00:11:49;12.40;99.90
40660;DHT22;26753;45.544;9.232;2024-02-04T00:14:18;11.90;99.90
40660;DHT22;26753;45.544;9.232;2024-02-04T00:16:44;12.30;99.90
40660;DHT22;26753;45.544;9.232;2024-02-04T00:19:10;12.60;99.90
40660;DHT22;26753;45.544;9.232;2024-02-04T00:21:36;12.30;99.90
40660;DHT22;26753;45.544;9.232;2024-02-04T00:24:02;11.80;99.90
40660;DHT22;26753;45.544;9.232;2024-02-04T00:26:28;11.40;99.90
40660;DHT22;26753;45.544;9.232;2024-02-04T00:28:54;12.30;99.90
40660;DHT22;26753;45.544;9.232;2024-02-04T00:31:23;11.50;99.90
40660;DHT22;26753;45.544;9.232;2024-02-04T00:33:52;11.70;99.90
40660;DHT22;26753;45.544;9.232;2024-02-04T00:36:21;10.80;99.90
40660;DHT22;26753;45.544;9.232;2024-02-04T00:38:47;10.80;99.90
40660;DHT22;26753;45.544;9.232;2024-02-04T00:41:14;12.40;99.90
40660;DHT22;26753;45.544;9.232;2024-02-04T00:43:40;11.60;99.90
40660;DHT22;26753;45.544;9.232;2024-02-04T00:46:08;12.00;99.90
40660;DHT22;26753;45.544;9.232;2024-02-04T00:48:36;11.60;99.90
40660;DHT22;26753;45.544;9.232;2024-02-04T00:51:03;11.60;99.90
40660;DHT22;26753;45.544;9.232;2024-02-04T00:53:29;11.60;99.90
40660;DHT22;26753;45.544;9.232;2024-02-04T00:56:03;11.50;99.90
40660;DHT22;26753;45.544;9.232;2024-02-04T00:58:29;11.40;99.90
40660;DHT22;26753;45.544;9.232;2024-02-04T01:00:55;11.60;99.90
40660;DHT22;26753;45.544;9.232;2024-02-04T01:03:21;12.00;99.90
40660;DHT22;26753;45.544;9.232;2024-02-04T01:05:47;11.00;99.90
40660;DHT22;26753;45.544;9.232;2024-02-04T01:08:13;12.70;99.90
40660;DHT22;26753;45.544;9.232;2024-02-04T01:10:38;11.50;99.90
40660;DHT22;26753;45.544;9.232;2024-02-04T01:13:04;12.00;99.90
40660;DHT22;26753;45.544;9.232;2024-02-04T01:15:30;10.40;99.90
40660;DHT22;26753;45.544;9.232;2024-02-04T01:17:56;11.40;99.90
40660;DHT22;26753;45.544;9.232;2024-02-04T01:20:22;11.40;99.90
40660;DHT22;26753;45.544;9.232;2024-02-04T01:22:47;10.10;99.90
40660;DHT22;26753;45.544;9.232;2024-02-04T01:25:13;10.20;99.90
40660;DHT22;26753;45.544;9.232;2024-02-04T01:27:39;11.40;99.90
40660;DHT22;26753;45.544;9.232;2024-02-04T01:30:06;11.30;99.90
40660;DHT22;26753;45.544;9.232;2024-02-04T01:32:32;11.90;99.90
40660;DHT22;26753;45.544;9.232;2024-02-04T01:34:57;11.40;99.90
40660;DHT22;26753;45.544;9.232;2024-02-04T01:37:23;12.60;99.90
40660;DHT22;26753;45.544;9.232;2024-02-04T01:39:49;11.90;99.90
40660;DHT22;26753;45.544;9.232;2024-02-04T01:42:15;11.90;99.90
40660;DHT22;26753;45.544;9.232;2024-02-04T01:44:41;10.70;99.90
40660;DHT22;26753;45.544;9.232;2024-02-04T01:47:07;11.30;99.90
40660;DHT22;26753;45.544;9.232;2024-02-04T01:49:33;12.30;99.90
40660;DHT22;26753;45.544;9.232;2024-02-04T01:51:59;11.40;99.90
40660;DHT22;26753;45.544;9.232;2024-02-04T01:54:27;12.10;99.90
40660;DHT22;26753;45.544;9.232;2024-02-04T01:56:53;11.10;99.90
40660;DHT22;26753;45.544;9.232;2024-02-04T01:59:23;12.20;99.90
40660;DHT22;26753;45.544;9.232;2024-02-04T02:01:53;11.00;99.90
40660;DHT22;26753;45.544;9.232;2024-02-04T02:04:20;10.80;99.90
40660;DHT22;26753;45.544;9.232;2024-02-04T02:06:46;10.60;99.90
40660;DHT22;26753;45.544;9.232;2024-02-04T02:09:13;11.90;99.90
40660;DHT22;26753;45.544;9.232;2024-02-04T02:11:46;10.30;99.90
40660;DHT22;26753;45.544;9.232;2024-02-04T02:14:19;11.70;99.90
40660;DHT22;26753;45.544;9.232;2024-02-04T02:16:57;10.00;99.90
40660;DHT22;26753;45.544;9.232;2024-02-04T02:22:13;11.00;99.90
40660;DHT22;26753;45.544;9.232;2024-02-04T02:24:42;10.00;99.90
40660;DHT22;26753;45.544;9.232;2024-02-04T02:27:14;10.70;99.90
40660;DHT22;26753;45.544;9.232;2024-02-04T02:29:43;11.10;99.90
40660;DHT22;26753;45.544;9.232;2024-02-04T02:32:12;11.10;99.90
40660;DHT22;26753;45.544;9.232;2024-02-04T02:34:37;12.40;99.90
40660;DHT22;26753;45.544;9.232;2024-02-04T02:37:07;10.90;99.90
40660;DHT22;26753;45.544;9.232;2024-02-04T02:39:40;11.00;99.90
40660;DHT22;26753;45.544;9.232;2024-02-04T02:42:09;10.90;99.90
40660;DHT22;26753;45.544;9.232;2024-02-04T02:44:38;10.00;99.90
40660;DHT22;26753;45.544;9.232;2024-02-04T02:47:07;10.60;99.90
40660;DHT22;26753;45.544;9.232;2024-02-04T02:49:37;10.70;99.90
40660;DHT22;26753;45.544;9.232;2024-02-04T02:52:03;11.00;99.90
40660;DHT22;26753;45.544;9.232;2024-02-04T02:54:29;10.10;99.90
40660;DHT22;26753;45.544;9.232;2024-02-04T02:56:55;11.30;99.90
40660;DHT22;26753;45.544;9.232;2024-02-04T02:59:21;9.50;99.90
40660;DHT22;26753;45.544;9.232;2024-02-04T03:01:46;11.50;99.90
40660;DHT22;26753;45.544;9.232;2024-02-04T03:04:12;10.70;99.90
40660;DHT22;26753;45.544;9.232;2024-02-04T03:06:38;11.00;99.90
40660;DHT22;26753;45.544;9.232;2024-02-04T03:09:03;9.60;99.90
40660;DHT22;26753;45.544;9.232;2024-02-04T03:11:29;11.20;99.90
40660;DHT22;26753;45.544;9.232;2024-02-04T03:13:55;10.40;99.90
40660;DHT22;26753;45.544;9.232;2024-02-04T03:16:21;10.50;99.90
40660;DHT22;26753;45.544;9.232;2024-02-04T03:18:47;10.50;99.90
40660;DHT22;26753;45.544;9.232;2024-02-04T03:21:13;8.80;99.90
40660;DHT22;26753;45.544;9.232;2024-02-04T03:23:40;11.00;99.90
40660;DHT22;26753;45.544;9.232;2024-02-04T03:26:07;10.30;99.90
40660;DHT22;26753;45.544;9.232;2024-02-04T03:28:33;9.80;99.90
40660;DHT22;26753;45.544;9.232;2024-02-04T03:30:58;10.40;99.90
40660;DHT22;26753;45.544;9.232;2024-02-04T03:33:27;10.90;99.90
40660;DHT22;26753;45.544;9.232;2024-02-04T03:35:52;10.10;99.90
40660;DHT22;26753;45.544;9.232;2024-02-04T03:38:18;11.80;99.90
40660;DHT22;26753;45.544;9.232;2024-02-04T03:40:44;10.70;99.90
40660;DHT22;26753;45.544;9.232;2024-02-04T03:43:10;9.70;99.90
40660;DHT22;26753;45.544;9.232;2024-02-04T03:45:36;9.80;99.90
40660;DHT22;26753;45.544;9.232;2024-02-04T03:48:02;9.40;99.90
40660;DHT22;26753;45.544;9.232;2024-02-04T03:50:28;9.10;99.90
40660;DHT22;26753;45.544;9.232;2024-02-04T03:52:54;10.10;99.90
40660;DHT22;26753;45.544;9.232;2024-02-04T03:55:20;9.90;99.90
40660;DHT22;26753;45.544;9.232;2024-02-04T03:57:47;9.70;99.90
40660;DHT22;26753;45.544;9.232;2024-02-04T04:00:13;8.70;99.90
40660;DHT22;26753;45.544;9.232;2024-02-04T04:02:40;10.30;99.90
40660;DHT22;26753;45.544;9.232;2024-02-04T04:05:10;8.70;99.90
40660;DHT22;26753;45.544;9.232;2024-02-04T04:07:38;9.90;99.90
40660;DHT22;26753;45.544;9.232;2024-02-04T04:10:05;9.30;99.90
40660;DHT22;26753;45.544;9.232;2024-02-04T04:12:31;9.70;99.90
40660;DHT22;26753;45.544;9.232;2024-02-04T04:14:57;10.60;99.90
40660;DHT22;26753;45.544;9.232;2024-02-04T04:17:23;9.90;99.90
40660;DHT22;26753;45.544;9.232;2024-02-04T04:19:56;8.70;99.90
40660;DHT22;26753;45.544;9.232;2024-02-04T04:22:22;10.90;99.90
40660;DHT22;26753;45.544;9.232;2024-02-04T04:24:47;10.10;99.90
40660;DHT22;26753;45.544;9.232;2024-02-04T04:27:13;9.20;99.90
40660;DHT22;26753;45.544;9.232;2024-02-04T04:29:39;7.80;99.90
40660;DHT22;26753;45.544;9.232;2024-02-04T04:32:05;9.20;99.90
40660;DHT22;26753;45.544;9.232;2024-02-04T04:34:31;8.80;99.90
40660;DHT22;26753;45.544;9.232;2024-02-04T04:36:57;10.10;99.90
40660;DHT22;26753;45.544;9.232;2024-02-04T04:39:23;9.80;99.90
40660;DHT22;26753;45.544;9.232;2024-02-04T04:41:49;10.70;99.90
40660;DHT22;26753;45.544;9.232;2024-02-04T04:44:14;9.40;99.90
40660;DHT22;26753;45.544;9.232;2024-02-04T04:46:40;9.10;99.90
40660;DHT22;26753;45.544;9.232;2024-02-04T04:49:06;9.70;99.90
40660;DHT22;26753;45.544;9.232;2024-02-04T04:51:32;9.30;99.90
40660;DHT22;26753;45.544;9.232;2024-02-04T04:53:58;10.00;99.90
40660;DHT22;26753;45.544;9.232;2024-02-04T04:56:24;10.30;99.90
40660;DHT22;26753;45.544;9.232;2024-02-04T04:58:50;9.20;99.90
40660;DHT22;26753;45.544;9.232;2024-02-04T05:01:16;9.90;99.90
40660;DHT22;26753;45.544;9.232;2024-02-04T05:03:44;8.80;99.90
40660;DHT22;26753;45.544;9.232;2024-02-04T05:06:13;9.70;99.90
40660;DHT22;26753;45.544;9.232;2024-02-04T05:08:39;9.60;99.90
40660;DHT22;26753;45.544;9.232;2024-02-04T05:11:04;9.60;99.90
40660;DHT22;26753;45.544;9.232;2024-02-04T05:13:30;9.60;99.90
40660;DHT22;26753;45.544;9.232;2024-02-04T05:15:56;8.90;99.90
40660;DHT22;26753;45.544;9.232;2024-02-04T05:18:22;8.20;99.90
40660;DHT22;26753;45.544;9.232;2024-02-04T05:20:48;10.50;99.90
40660;DHT22;26753;45.544;9.232;2024-02-04T05:23:14;8.80;99.90
40660;DHT22;26753;45.544;9.232;2024-02-04T05:25:42;10.30;99.90
40660;DHT22;26753;45.544;9.232;2024-02-04T05:28:08;9.70;99.90
40660;DHT22;26753;45.544;9.232;2024-02-04T05:30:47;8.80;99.90
40660;DHT22;26753;45.544;9.232;2024-02-04T05:33:16;8.60;99.90
40660;DHT22;26753;45.544;9.232;2024-02-04T05:35:45;9.40;99.90
40660;DHT22;26753;45.544;9.232;2024-02-04T05:38:11;8.00;99.90
40660;DHT22;26753;45.544;9.232;2024-02-04T05:40:37;8.60;99.90
40660;DHT22;26753;45.544;9.232;2024-02-04T05:43:03;8.30;99.90
40660;DHT22;26753;45.544;9.232;2024-02-04T05:45:37;8.50;99.90
40660;DHT22;26753;45.544;9.232;2024-02-04T05:48:04;10.60;99.90
40660;DHT22;26753;45.544;9.232;2024-02-04T05:50:30;10.40;99.90
40660;DHT22;26753;45.544;9.232;2024-02-04T05:52:56;9.60;99.90
40660;DHT22;26753;45.544;9.232;2024-02-04T05:55:22;8.70;99.90
40660;DHT22;26753;45.544;9.232;2024-02-04T05:57:49;9.20;99.90
40660;DHT22;26753;45.544;9.232;2024-02-04T06:00:15;10.00;99.90
40660;DHT22;26753;45.544;9.232;2024-02-04T06:02:41;8.70;99.90
40660;DHT22;26753;45.544;9.232;2024-02-04T06:05:09;9.50;99.90
40660;DHT22;26753;45.544;9.232;2024-02-04T06:07:35;10.10;99.90
40660;DHT22;26753;45.544;9.232;2024-02-04T06:10:01;10.80;99.90
40660;DHT22;26753;45.544;9.232;2024-02-04T06:12:29;9.90;99.90
40660;DHT22;26753;45.544;9.232;2024-02-04T06:14:55;10.20;99.90
40660;DHT22;26753;45.544;9.232;2024-02-04T06:17:21;9.10;99.90
40660;DHT22;26753;45.544;9.232;2024-02-04T06:22:14;6.80;99.90
40660;DHT22;26753;45.544;9.232;2024-02-04T06:24:41;9.60;99.90
40660;DHT22;26753;45.544;9.232;2024-02-04T06:27:10;8.50;99.90
40660;DHT22;26753;45.544;9.232;2024-02-04T06:29:36;8.80;99.90
40660;DHT22;26753;45.544;9.232;2024-02-04T06:32:03;9.10;99.90
40660;DHT22;26753;45.544;9.232;2024-02-04T06:34:28;8.40;99.90
40660;DHT22;26753;45.544;9.232;2024-02-04T06:36:54;9.60;99.90
40660;DHT22;26753;45.544;9.232;2024-02-04T06:39:20;8.30;99.90
40660;DHT22;26753;45.544;9.232;2024-02-04T06:41:46;9.00;99.90
40660;DHT22;26753;45.544;9.232;2024-02-04T06:44:12;9.00;99.90
40660;DHT22;26753;45.544;9.232;2024-02-04T06:46:41;9.20;99.90
40660;DHT22;26753;45.544;9.232;2024-02-04T06:49:12;10.80;99.90
40660;DHT22;26753;45.544;9.232;2024-02-04T06:51:43;7.90;99.90
40660;DHT22;26753;45.544;9.232;2024-02-04T06:54:11;8.70;99.90
40660;DHT22;26753;45.544;9.232;2024-02-04T06:56:40;8.40;99.90
40660;DHT22;26753;45.544;9.232;2024-02-04T06:59:09;10.80;99.90
40660;DHT22;26753;45.544;9.232;2024-02-04T07:01:35;9.10;99.90
40660;DHT22;26753;45.544;9.232;2024-02-04T07:04:00;7.70;99.90
40660;DHT22;26753;45.544;9.232;2024-02-04T07:06:36;8.60;99.90
40660;DHT22;26753;45.544;9.232;2024-02-04T07:09:01;8.90;99.90
40660;DHT22;26753;45.544;9.232;2024-02-04T07:11:27;8.30;99.90
40660;DHT22;26753;45.544;9.232;2024-02-04T07:13:54;8.10;99.90
40660;DHT22;26753;45.544;9.232;2024-02-04T07:16:25;9.80;99.90
40660;DHT22;26753;45.544;9.232;2024-02-04T07:18:57;9.00;99.90
40660;DHT22;26753;45.544;9.232;2024-02-04T07:21:28;9.60;99.90
40660;DHT22;26753;45.544;9.232;2024-02-04T07:23:54;9.20;99.90
40660;DHT22;26753;45.544;9.232;2024-02-04T07:26:20;9.80;99.90
40660;DHT22;26753;45.544;9.232;2024-02-04T07:28:46;8.00;99.90
40660;DHT22;26753;45.544;9.232;2024-02-04T07:31:12;10.50;99.90
40660;DHT22;26753;45.544;9.232;2024-02-04T07:33:38;10.90;99.90
40660;DHT22;26753;45.544;9.232;2024-02-04T07:36:04;9.40;99.90
40660;DHT22;26753;45.544;9.232;2024-02-04T07:38:30;11.20;99.90
40660;DHT22;26753;45.544;9.232;2024-02-04T07:40:55;9.90;99.90
40660;DHT22;26753;45.544;9.232;2024-02-04T07:45:50;10.20;99.90
40660;DHT22;26753;45.544;9.232;2024-02-04T07:48:16;8.20;99.90
40660;DHT22;26753;45.544;9.232;2024-02-04T07:50:46;8.10;99.90
40660;DHT22;26753;45.544;9.232;2024-02-04T07:53:14;10.70;99.90
40660;DHT22;26753;45.544;9.232;2024-02-04T07:55:40;9.40;99.90
40660;DHT22;26753;45.544;9.232;2024-02-04T07:58:06;9.00;99.90
40660;DHT22;26753;45.544;9.232;2024-02-04T08:00:32;8.60;99.90
40660;DHT22;26753;45.544;9.232;2024-02-04T08:02:58;10.50;99.90
40660;DHT22;26753;45.544;9.232;2024-02-04T08:05:23;10.30;99.90
40660;DHT22;26753;45.544;9.232;2024-02-04T08:07:49;10.30;99.90
40660;DHT22;26753;45.544;9.232;2024-02-04T08:10:15;9.10;99.90
40660;DHT22;26753;45.544;9.232;2024-02-04T08:12:41;9.50;99.90
40660;DHT22;26753;45.544;9.232;2024-02-04T08:15:07;11.00;99.90
40660;DHT22;26753;45.544;9.232;2024-02-04T08:17:33;9.70;99.90
40660;DHT22;26753;45.544;9.232;2024-02-04T08:19:59;10.80;99.90
40660;DHT22;26753;45.544;9.232;2024-02-04T08:22:25;10.80;99.90
40660;DHT22;26753;45.544;9.232;2024-02-04T08:24:50;9.50;99.90
40660;DHT22;26753;45.544;9.232;2024-02-04T08:27:17;10.70;99.90
40660;DHT22;26753;45.544;9.232;2024-02-04T08:29:43;10.20;99.90
40660;DHT22;26753;45.544;9.232;2024-02-04T08:32:09;11.60;99.90
40660;DHT22;26753;45.544;9.232;2024-02-04T08:34:44;11.90;99.90
40660;DHT22;26753;45.544;9.232;2024-02-04T08:37:18;9.70;99.90
40660;DHT22;26753;45.544;9.232;2024-02-04T08:39:53;10.10;99.90
40660;DHT22;26753;45.544;9.232;2024-02-04T08:42:19;11.70;99.90
40660;DHT22;26753;45.544;9.232;2024-02-04T08:44:45;10.40;99.90
40660;DHT22;26753;45.544;9.232;2024-02-04T08:47:14;11.00;99.90
40660;DHT22;26753;45.544;9.232;2024-02-04T08:52:08;12.30;99.90
40660;DHT22;26753;45.544;9.232;2024-02-04T08:54:34;14.60;99.90
40660;DHT22;26753;45.544;9.232;2024-02-04T08:57:00;11.90;99.90
40660;DHT22;26753;45.544;9.232;2024-02-04T08:59:29;11.50;99.90
40660;DHT22;26753;45.544;9.232;2024-02-04T09:01:55;11.30;99.90
40660;DHT22;26753;45.544;9.232;2024-02-04T09:04:21;10.80;99.90
40660;DHT22;26753;45.544;9.232;2024-02-04T09:06:46;11.80;99.90
40660;DHT22;26753;45.544;9.232;2024-02-04T09:09:12;11.70;99.90
40660;DHT22;26753;45.544;9.232;2024-02-04T09:11:38;12.30;99.90
40660;DHT22;26753;45.544;9.232;2024-02-04T09:14:04;11.70;99.90
40660;DHT22;26753;45.544;9.232;2024-02-04T09:16:30;11.10;99.90
40660;DHT22;26753;45.544;9.232;2024-02-04T09:19:07;12.60;99.90
40660;DHT22;26753;45.544;9.232;2024-02-04T09:21:34;11.40;99.90
40660;DHT22;26753;45.544;9.232;2024-02-04T09:23:59;11.30;99.90
40660;DHT22;26753;45.544;9.232;2024-02-04T09:26:25;13.40;99.90
40660;DHT22;26753;45.544;9.232;2024-02-04T09:28:51;11.80;99.90
40660;DHT22;26753;45.544;9.232;2024-02-04T09:31:17;12.40;99.90
40660;DHT22;26753;45.544;9.232;2024-02-04T09:33:42;12.40;99.90
40660;DHT22;26753;45.544;9.232;2024-02-04T09:36:09;13.80;99.90
40660;DHT22;26753;45.544;9.232;2024-02-04T09:38:34;12.60;99.90
40660;DHT22;26753;45.544;9.232;2024-02-04T09:41:01;12.80;99.90
40660;DHT22;26753;45.544;9.232;2024-02-04T09:43:49;11.60;99.90
40660;DHT22;26753;45.544;9.232;2024-02-04T09:46:16;12.90;99.90
40660;DHT22;26753;45.544;9.232;2024-02-04T09:48:44;14.00;99.90
40660;DHT22;26753;45.544;9.232;2024-02-04T09:51:11;13.50;99.90
40660;DHT22;26753;45.544;9.232;2024-02-04T09:53:44;14.10;99.90
40660;DHT22;26753;45.544;9.232;2024-02-04T09:56:11;14.70;99.90
40660;DHT22;26753;45.544;9.232;2024-02-04T09:58:46;13.90;99.90
40660;DHT22;26753;45.544;9.232;2024-02-04T10:01:12;13.60;99.90
40660;DHT22;26753;45.544;9.232;2024-02-04T10:03:39;13.90;99.90
40660;DHT22;26753;45.544;9.232;2024-02-04T10:06:16;14.00;99.90
40660;DHT22;26753;45.544;9.232;2024-02-04T10:08:42;14.10;99.90
40660;DHT22;26753;45.544;9.232;2024-02-04T10:11:09;14.10;99.90
40660;DHT22;26753;45.544;9.232;2024-02-04T10:13:51;13.90;99.90
40660;DHT22;26753;45.544;9.232;2024-02-04T10:16:17;14.40;99.90
40660;DHT22;26753;45.544;9.232;2024-02-04T10:18:47;14.60;99.90
40660;DHT22;26753;45.544;9.232;2024-02-04T10:21:24;14.80;99.90
40660;DHT22;26753;45.544;9.232;2024-02-04T10:23:51;15.00;99.90
40660;DHT22;26753;45.544;9.232;2024-02-04T10:26:17;15.00;99.90
40660;DHT22;26753;45.544;9.232;2024-02-04T10:28:46;15.10;99.90
40660;DHT22;26753;45.544;9.232;2024-02-04T10:31:13;15.10;99.90
40660;DHT22;26753;45.544;9.232;2024-02-04T10:33:39;15.30;99.90
40660;DHT22;26753;45.544;9.232;2024-02-04T10:36:05;15.40;99.90
40660;DHT22;26753;45.544;9.232;2024-02-04T10:38:34;15.60;99.90
40660;DHT22;26753;45.544;9.232;2024-02-04T10:41:01;15.80;99.90
40660;DHT22;26753;45.544;9.232;2024-02-04T10:43:34;15.90;99.90
40660;DHT22;26753;45.544;9.232;2024-02-04T10:46:19;16.00;99.90
40660;DHT22;26753;45.544;9.232;2024-02-04T10:49:06;16.10;99.90
40660;DHT22;26753;45.544;9.232;2024-02-04T10:51:41;16.30;99.90
40660;DHT22;26753;45.544;9.232;2024-02-04T10:54:08;16.40;99.90
40660;DHT22;26753;45.544;9.232;2024-02-04T10:56:38;16.50;99.90
40660;DHT22;26753;45.544;9.232;2024-02-04T10:59:08;16.60;99.90
40660;DHT22;26753;45.544;9.232;2024-02-04T11:01:40;16.90;99.90
40660;DHT22;26753;45.544;9.232;2024-02-04T11:04:12;17.00;99.90
40660;DHT22;26753;45.544;9.232;2024-02-04T11:06:40;17.10;99.90
40660;DHT22;26753;45.544;9.232;2024-02-04T11:09:09;16.90;99.90
40660;DHT22;26753;45.544;9.232;2024-02-04T11:11:39;17.10;99.90
40660;DHT22;26753;45.544;9.232;2024-02-04T11:14:11;17.40;99.90
40660;DHT22;26753;45.544;9.232;2024-02-04T11:22:32;17.70;99.90
40660;DHT22;26753;45.544;9.232;2024-02-04T11:25:35;17.90;99.90
40660;DHT22;26753;45.544;9.232;2024-02-04T11:28:39;17.90;99.90
40660;DHT22;26753;45.544;9.232;2024-02-04T11:31:12;18.10;99.90
40660;DHT22;26753;45.544;9.232;2024-02-04T11:33:47;18.10;99.90
40660;DHT22;26753;45.544;9.232;2024-02-04T11:36:16;18.30;99.90
40660;DHT22;26753;45.544;9.232;2024-02-04T11:39:11;18.50;99.90
40660;DHT22;26753;45.544;9.232;2024-02-04T11:41:45;18.80;99.90
40660;DHT22;26753;45.544;9.232;2024-02-04T11:44:11;18.80;99.90
40660;DHT22;26753;45.544;9.232;2024-02-04T11:46:57;18.80;99.90
40660;DHT22;26753;45.544;9.232;2024-02-04T11:49:28;18.70;99.90
40660;DHT22;26753;45.544;9.232;2024-02-04T11:51:57;18.80;99.90
40660;DHT22;26753;45.544;9.232;2024-02-04T11:54:23;18.80;99.90
40660;DHT22;26753;45.544;9.232;2024-02-04T11:56:54;18.90;99.90
40660;DHT22;26753;45.544;9.232;2024-02-04T11:59:25;19.00;99.90
40660;DHT22;26753;45.544;9.232;2024-02-04T12:01:56;19.20;99.90
40660;DHT22;26753;45.544;9.232;2024-02-04T12:04:22;19.20;99.90
40660;DHT22;26753;45.544;9.232;2024-02-04T12:06:49;19.40;99.90
40660;DHT22;26753;45.544;9.232;2024-02-04T12:09:19;19.50;99.90
40660;DHT22;26753;45.544;9.232;2024-02-04T12:11:45;19.70;99.90
40660;DHT22;26753;45.544;9.232;2024-02-04T12:14:12;19.90;99.90
40660;DHT22;26753;45.544;9.232;2024-02-04T12:16:39;20.10;99.90
40660;DHT22;26753;45.544;9.232;2024-02-04T12:19:05;20.00;99.90
40660;DHT22;26753;45.544;9.232;2024-02-04T12:21:32;19.80;99.90
40660;DHT22;26753;45.544;9.232;2024-02-04T12:24:01;19.80;99.90
40660;DHT22;26753;45.544;9.232;2024-02-04T12:26:28;19.70;99.90
40660;DHT22;26753;45.544;9.232;2024-02-04T12:28:54;19.70;99.90
40660;DHT22;26753;45.544;9.232;2024-02-04T12:31:24;19.80;99.90
40660;DHT22;26753;45.544;9.232;2024-02-04T12:33:54;20.30;99.90
40660;DHT22;26753;45.544;9.232;2024-02-04T12:36:30;21.40;99.90
40660;DHT22;26753;45.544;9.232;2024-02-04T12:38:58;21.20;99.90
40660;DHT22;26753;45.544;9.232;2024-02-04T12:41:26;21.00;99.90
40660;DHT22;26753;45.544;9.232;2024-02-04T12:43:59;21.30;99.90
40660;DHT22;26753;45.544;9.232;2024-02-04T12:46:26;21.40;99.90
40660;DHT22;26753;45.544;9.232;2024-02-04T12:48:59;22.60;99.30
40660;DHT22;26753;45.544;9.232;2024-02-04T12:51:30;24.60;95.80
40660;DHT22;26753;45.544;9.232;2024-02-04T12:54:08;26.50;93.10
40660;DHT22;26753;45.544;9.232;2024-02-04T12:56:48;31.60;80.30
40660;DHT22;26753;45.544;9.232;2024-02-04T12:59:31;36.00;66.50
40660;DHT22;26753;45.544;9.232;2024-02-04T13:01:58;38.00;56.40
40660;DHT22;26753;45.544;9.232;2024-02-04T13:04:47;39.00;53.40
40660;DHT22;26753;45.544;9.232;2024-02-04T13:07:16;40.70;50.90
40660;DHT22;26753;45.544;9.232;2024-02-04T13:09:57;40.00;48.60
40660;DHT22;26753;45.544;9.232;2024-02-04T13:12:23;38.00;48.20
40660;DHT22;26753;45.544;9.232;2024-02-04T13:14:51;36.30;48.60
40660;DHT22;26753;45.544;9.232;2024-02-04T13:17:25;33.90;49.00
40660;DHT22;26753;45.544;9.232;2024-02-04T13:19:51;32.40;50.70
40660;DHT22;26753;45.544;9.232;2024-02-04T13:22:17;31.60;51.90
40660;DHT22;26753;45.544;9.232;2024-02-04T13:24:44;31.10;52.40
40660;DHT22;26753;45.544;9.232;2024-02-04T13:27:29;30.30;53.10
40660;DHT22;26753;45.544;9.232;2024-02-04T13:42:42;24.80;59.80
40660;DHT22;26753;45.544;9.232;2024-02-04T13:45:21;24.30;62.00
40660;DHT22;26753;45.544;9.232;2024-02-04T13:47:47;23.80;62.20
40660;DHT22;26753;45.544;9.232;2024-02-04T13:50:14;23.30;63.40
40660;DHT22;26753;45.544;9.232;2024-02-04T13:53:06;23.30;64.10
40660;DHT22;26753;45.544;9.232;2024-02-04T13:55:37;23.40;64.10
40660;DHT22;26753;45.544;9.232;2024-02-04T13:58:09;23.10;64.80
40660;DHT22;26753;45.544;9.232;2024-02-04T14:00:35;23.10;65.20
40660;DHT22;26753;45.544;9.232;2024-02-04T14:03:11;22.60;65.90
40660;DHT22;26753;45.544;9.232;2024-02-04T14:08:31;21.70;68.10
40660;DHT22;26753;45.544;9.232;2024-02-04T14:11:28;21.40;68.70
40660;DHT22;26753;45.544;9.232;2024-02-04T14:13:54;21.00;69.60
40660;DHT22;26753;45.544;9.232;2024-02-04T14:16:20;20.70;71.10
40660;DHT22;26753;45.544;9.232;2024-02-04T14:18:52;20.50;71.40
40660;DHT22;26753;45.544;9.232;2024-02-04T14:21:33;20.50;72.10
40660;DHT22;26753;45.544;9.232;2024-02-04T14:24:07;20.40;73.00
40660;DHT22;26753;45.544;9.232;2024-02-04T14:26:37;20.40;73.50
40660;DHT22;26753;45.544;9.232;2024-02-04T14:29:05;20.10;74.30
40660;DHT22;26753;45.544;9.232;2024-02-04T14:31:36;20.10;75.60
40660;DHT22;26753;45.544;9.232;2024-02-04T14:34:11;19.90;75.50
40660;DHT22;26753;45.544;9.232;2024-02-04T14:36:54;20.00;76.10
40660;DHT22;26753;45.544;9.232;2024-02-04T14:39:40;19.90;76.60
40660;DHT22;26753;45.544;9.232;2024-02-04T14:45:34;19.40;79.30
40660;DHT22;26753;45.544;9.232;2024-02-04T14:48:17;19.10;80.30
40660;DHT22;26753;45.544;9.232;2024-02-04T14:50:49;19.00;81.40
40660;DHT22;26753;45.544;9.232;2024-02-04T14:53:45;18.70;82.80
40660;DHT22;26753;45.544;9.232;2024-02-04T14:56:23;18.70;83.60
40660;DHT22;26753;45.544;9.232;2024-02-04T14:59:13;18.50;84.30
40660;DHT22;26753;45.544;9.232;2024-02-04T15:01:45;18.30;85.60
40660;DHT22;26753;45.544;9.232;2024-02-04T15:04:17;18.10;86.90
40660;DHT22;26753;45.544;9.232;2024-02-04T15:07:01;18.00;88.00
40660;DHT22;26753;45.544;9.232;2024-02-04T15:10:11;17.80;89.20
40660;DHT22;26753;45.544;9.232;2024-02-04T15:12:52;17.60;90.40
40660;DHT22;26753;45.544;9.232;2024-02-04T15:19:06;17.40;91.60
40660;DHT22;26753;45.544;9.232;2024-02-04T15:21:58;17.30;92.40
40660;DHT22;26753;45.544;9.232;2024-02-04T15:25:05;17.10;93.10
40660;DHT22;26753;45.544;9.232;2024-02-04T15:28:30;17.00;93.70
40660;DHT22;26753;45.544;9.232;2024-02-04T15:31:02;16.80;94.60
40660;DHT22;26753;45.544;9.232;2024-02-04T15:37:13;16.60;95.80
40660;DHT22;26753;45.544;9.232;2024-02-04T15:39:59;16.50;96.70
40660;DHT22;26753;45.544;9.232;2024-02-04T15:42:33;16.40;96.90
40660;DHT22;26753;45.544;9.232;2024-02-04T15:45:17;16.50;97.30
40660;DHT22;26753;45.544;9.232;2024-02-04T15:48:15;16.50;98.10
40660;DHT22;26753;45.544;9.232;2024-02-04T15:50:52;16.40;98.30
40660;DHT22;26753;45.544;9.232;2024-02-04T15:53:18;16.40;98.70
40660;DHT22;26753;45.544;9.232;2024-02-04T15:56:12;16.20;99.40
40660;DHT22;26753;45.544;9.232;2024-02-04T15:58:48;16.10;99.90
40660;DHT22;26753;45.544;9.232;2024-02-04T16:01:39;15.90;99.90
40660;DHT22;26753;45.544;9.232;2024-02-04T16:04:26;15.80;99.90
40660;DHT22;26753;45.544;9.232;2024-02-04T16:06:52;15.80;99.90
40660;DHT22;26753;45.544;9.232;2024-02-04T16:09:19;15.70;99.90
40660;DHT22;26753;45.544;9.232;2024-02-04T16:23:11;15.60;99.90
40660;DHT22;26753;45.544;9.232;2024-02-04T16:25:57;15.60;99.90
40660;DHT22;26753;45.544;9.232;2024-02-04T16:35:18;15.20;99.90
40660;DHT22;26753;45.544;9.232;2024-02-04T16:37:47;14.90;99.90
40660;DHT22;26753;45.544;9.232;2024-02-04T16:40:22;14.80;99.90
40660;DHT22;26753;45.544;9.232;2024-02-04T16:42:48;14.70;99.90
40660;DHT22;26753;45.544;9.232;2024-02-04T16:45:17;14.60;99.90
40660;DHT22;26753;45.544;9.232;2024-02-04T16:47:48;14.60;99.90
40660;DHT22;26753;45.544;9.232;2024-02-04T16:50:14;14.70;99.90
40660;DHT22;26753;45.544;9.232;2024-02-04T16:52:40;14.60;99.90